Time;durP1;ratioP1;P1;durP2;ratioP2;P2;SDS_P1;SDS_P2;PMS_P1;PMS_P2;Temp;Humidity;BMP_temperature;BMP_pressure;BME280_temperature;BME280_humidity;BME280_pressure;Samples;Min_cycle;Max_cycle;Signal;HPM_P1;HPM_P2
2023/08/11 00:00:41;;;;;;;9.40;4.50;;;;;;;17.99;61.33;96725.28;5088025;28;20173;-69
2023/08/11 00:03:07;;;;;;;7.67;5.67;;;;;;;17.96;61.19;96732.63;5088525;28;20415;-69
2023/08/11 00:05:38;;;;;;;5.10;4.60;;;;;;;17.89;61.75;96734.00;5089739;28;21224;-70
2023/08/11 00:08:05;;;;;;;8.80;4.43;;;;;;;17.82;61.63;96732.72;5090161;28;20251;-68
2023/08/11 00:10:31;;;;;;;7.97;4.97;;;;;;;17.84;61.76;96738.78;5088003;28;20464;-70
2023/08/11 00:12:57;;;;;;;7.40;4.70;;;;;;;17.84;61.80;96733.47;5073370;28;20423;-70
2023/08/11 00:15:22;;;;;;;5.00;4.50;;;;;;;17.77;61.96;96733.00;5068189;28;20452;-70
2023/08/11 00:17:48;;;;;;;6.80;4.97;;;;;;;17.75;61.87;96740.22;5068177;28;20247;-71
2023/08/11 00:20:13;;;;;;;7.40;4.57;;;;;;;17.64;62.40;96740.06;5069383;28;20295;-70
2023/08/11 00:22:39;;;;;;;7.60;5.33;;;;;;;17.66;62.09;96746.13;5068523;28;20251;-70
2023/08/11 00:25:05;;;;;;;6.23;4.77;;;;;;;17.76;62.03;96742.78;5068221;28;20638;-70
2023/08/11 00:27:30;;;;;;;6.67;4.43;;;;;;;17.74;62.23;96743.81;5067987;28;20228;-69
2023/08/11 00:29:58;;;;;;;5.50;4.40;;;;;;;17.66;62.38;96746.13;5067751;28;20413;-69
2023/08/11 00:32:24;;;;;;;8.30;4.70;;;;;;;17.61;62.28;96746.44;5067986;28;20196;-69
2023/08/11 00:34:51;;;;;;;5.10;4.60;;;;;;;17.62;62.53;96741.97;5067619;28;20824;-69
2023/08/11 00:37:16;;;;;;;14.63;4.93;;;;;;;17.68;62.75;96744.22;5067645;28;20405;-70
2023/08/11 00:39:42;;;;;;;4.93;3.77;;;;;;;17.69;62.69;96746.78;5067756;28;20423;-69
2023/08/11 00:42:07;;;;;;;5.70;4.87;;;;;;;17.61;62.38;96740.28;5067636;28;20178;-69
2023/08/11 00:44:32;;;;;;;5.53;4.20;;;;;;;17.60;62.53;96743.88;5067452;28;20257;-70
2023/08/11 00:47:01;;;;;;;7.70;4.70;;;;;;;17.56;62.36;96737.94;5067642;28;20189;-70
2023/08/11 00:49:27;;;;;;;5.43;4.93;;;;;;;17.51;62.38;96735.59;5067311;28;20204;-69
2023/08/11 00:51:52;;;;;;;5.40;4.53;;;;;;;17.47;62.57;96733.25;5067556;28;20436;-69
2023/08/11 00:54:19;;;;;;;7.60;5.33;;;;;;;17.30;63.15;96732.53;5067385;28;20482;-70
2023/08/11 00:56:47;;;;;;;7.90;5.00;;;;;;;17.33;62.95;96731.50;5067659;28;20197;-69
2023/08/11 00:59:15;;;;;;;11.33;4.53;;;;;;;17.32;63.20;96733.28;5066809;28;20450;-69
2023/08/11 01:01:40;;;;;;;9.77;4.87;;;;;;;17.25;63.06;96737.31;5067180;28;20955;-70
2023/08/11 01:04:07;;;;;;;6.90;4.93;;;;;;;17.30;63.08;96737.00;5067049;28;20408;-70
2023/08/11 01:06:55;;;;;;;5.67;4.87;;;;;;;17.40;62.78;96734.59;5067019;28;20560;-69
2023/08/11 01:10:03;;;;;;;8.13;4.67;;;;;;;17.40;62.86;96738.09;5066645;28;20486;-70
2023/08/11 01:12:47;;;;;;;5.33;4.33;;;;;;;17.45;62.41;96740.44;5043773;28;20434;-69
2023/08/11 01:15:50;;;;;;;7.50;4.80;;;;;;;17.37;62.43;96743.59;5087348;28;20455;-69
2023/08/11 01:18:18;;;;;;;7.30;5.07;;;;;;;17.26;62.66;96736.34;5055116;28;20549;-70
2023/08/11 01:20:48;;;;;;;10.87;5.67;;;;;;;17.38;62.21;96737.34;5086884;28;20408;-70
2023/08/11 01:23:19;;;;;;;6.90;5.17;;;;;;;17.41;61.86;96739.81;5087292;28;20419;-70
2023/08/11 01:25:45;;;;;;;16.67;5.30;;;;;;;17.27;62.44;96738.06;5086651;28;20430;-70
2023/08/11 01:28:10;;;;;;;6.77;4.40;;;;;;;17.28;62.54;96737.09;5087184;28;20431;-70
2023/08/11 01:30:36;;;;;;;7.90;5.13;;;;;;;17.25;62.69;96736.47;5086660;28;20880;-69
2023/08/11 01:33:03;;;;;;;7.50;4.67;;;;;;;17.33;62.70;96739.44;5087140;28;20188;-69
2023/08/11 01:35:28;;;;;;;11.63;5.47;;;;;;;17.34;62.41;96739.34;5086758;28;20459;-70
2023/08/11 01:37:53;;;;;;;10.73;4.60;;;;;;;17.25;62.89;96742.59;5086796;28;20427;-70
2023/08/11 01:40:19;;;;;;;6.47;4.80;;;;;;;17.20;63.01;96744.72;5086545;28;20670;-70
2023/08/11 01:42:45;;;;;;;8.30;4.20;;;;;;;17.34;61.94;96747.31;5086915;28;20218;-70
2023/08/11 01:45:12;;;;;;;7.80;4.37;;;;;;;17.31;62.27;96749.31;5086880;28;20169;-69
2023/08/11 01:47:41;;;;;;;7.80;4.83;;;;;;;17.29;62.32;96757.38;5087456;28;20598;-69
2023/08/11 01:50:08;;;;;;;6.33;4.97;;;;;;;17.24;61.90;96748.84;5086487;28;20415;-69
2023/08/11 01:52:36;;;;;;;5.37;4.50;;;;;;;17.28;61.80;96757.47;5086609;28;20439;-70
2023/08/11 01:55:01;;;;;;;6.43;4.80;;;;;;;17.28;61.64;96757.47;5086519;28;20497;-70
2023/08/11 01:57:27;;;;;;;6.33;4.87;;;;;;;17.25;61.78;96757.69;5086883;28;20979;-70
2023/08/11 01:59:53;;;;;;;5.47;4.80;;;;;;;17.04;62.35;96758.09;5087060;28;20213;-70
2023/08/11 02:02:18;;;;;;;8.03;4.53;;;;;;;17.00;62.74;96761.88;5099584;28;20678;-70
2023/08/11 02:04:45;;;;;;;5.93;4.80;;;;;;;17.07;62.38;96759.69;5101735;28;20180;-70
2023/08/11 02:07:10;;;;;;;11.50;5.60;;;;;;;17.03;62.65;96763.50;5094193;28;20627;-70
2023/08/11 02:09:36;;;;;;;6.43;5.00;;;;;;;17.02;62.45;96757.34;5094202;28;20415;-70
2023/08/11 02:12:02;;;;;;;5.90;4.73;;;;;;;16.95;62.57;96753.38;5082139;28;20591;-69
2023/08/11 02:14:27;;;;;;;5.87;4.57;;;;;;;16.95;62.70;96757.84;5066205;28;20612;-71
2023/08/11 02:16:53;;;;;;;5.73;4.63;;;;;;;16.88;62.81;96760.03;5066250;28;20503;-70
2023/08/11 02:19:19;;;;;;;4.50;3.93;;;;;;;16.86;63.45;96752.16;5066170;28;20205;-72
2023/08/11 02:21:44;;;;;;;7.23;5.30;;;;;;;16.80;63.31;96759.69;5066529;28;20547;-70
2023/08/11 02:24:10;;;;;;;5.40;4.90;;;;;;;16.69;63.95;96761.16;5066380;28;20170;-70
2023/08/11 02:26:35;;;;;;;9.43;5.30;;;;;;;16.75;63.66;96759.06;5067287;28;20632;-70
2023/08/11 02:29:00;;;;;;;6.47;4.77;;;;;;;16.75;63.41;96762.59;5066674;28;20878;-70
2023/08/11 02:31:26;;;;;;;15.33;5.90;;;;;;;16.77;63.60;96750.09;5066101;28;20239;-70
2023/08/11 02:33:52;;;;;;;5.10;4.70;;;;;;;16.82;63.02;96753.31;5065878;28;20194;-70
2023/08/11 02:36:19;;;;;;;7.37;5.83;;;;;;;16.71;63.58;96747.81;5065732;28;20352;-69
2023/08/11 02:38:44;;;;;;;7.60;5.13;;;;;;;16.62;63.85;96751.88;5068068;28;20735;-71
2023/08/11 02:41:10;;;;;;;8.80;5.60;;;;;;;16.72;63.86;96757.44;5069848;28;20417;-70
2023/08/11 02:43:36;;;;;;;6.43;4.90;;;;;;;16.67;63.74;96754.25;5069749;28;20177;-70
2023/08/11 02:46:04;;;;;;;9.30;5.77;;;;;;;16.63;64.00;96752.72;5069691;28;20178;-70
2023/08/11 02:48:29;;;;;;;8.07;5.00;;;;;;;16.56;64.38;96752.28;5069664;28;20432;-70
2023/08/11 02:50:55;;;;;;;7.03;4.97;;;;;;;16.46;64.85;96744.06;5069610;28;20957;-70
2023/08/11 02:53:20;;;;;;;8.60;5.27;;;;;;;16.51;64.12;96738.44;5069812;28;20178;-71
2023/08/11 02:55:46;;;;;;;7.73;5.30;;;;;;;16.28;64.77;96751.31;5069644;28;20657;-70
2023/08/11 02:58:11;;;;;;;6.93;5.20;;;;;;;16.42;64.67;96745.19;5069427;28;20285;-70
2023/08/11 03:00:37;;;;;;;5.97;5.00;;;;;;;16.53;63.93;96744.50;5071760;28;20174;-70
2023/08/11 03:03:02;;;;;;;10.00;4.97;;;;;;;16.62;64.03;96743.94;5079593;28;20986;-69
2023/08/11 03:05:28;;;;;;;7.67;4.97;;;;;;;16.56;63.77;96744.34;5075800;28;20227;-70
2023/08/11 03:07:53;;;;;;;6.07;5.33;;;;;;;16.65;63.52;96745.53;5073136;28;20202;-70
2023/08/11 03:10:19;;;;;;;4.93;4.20;;;;;;;16.67;63.23;96748.94;5071926;28;20245;-70
2023/08/11 03:12:44;;;;;;;9.37;5.53;;;;;;;16.68;63.12;96753.31;5082851;28;20177;-69
2023/08/11 03:15:10;;;;;;;6.37;4.67;;;;;;;16.59;63.00;96749.44;5089489;28;20627;-69
2023/08/11 03:17:35;;;;;;;5.60;4.70;;;;;;;16.59;62.91;96741.47;5089641;28;20193;-70
2023/08/11 03:20:02;;;;;;;6.00;4.40;;;;;;;16.56;62.96;96741.69;5089219;28;20656;-70
2023/08/11 03:22:28;;;;;;;9.73;5.50;;;;;;;16.57;62.89;96748.66;5089451;28;20224;-70
2023/08/11 03:24:54;;;;;;;11.40;5.80;;;;;;;16.41;63.69;96747.91;5089417;28;20462;-70
2023/08/11 03:27:20;;;;;;;10.03;6.30;;;;;;;16.43;63.62;96746.03;5089212;28;20536;-69
2023/08/11 03:29:45;;;;;;;7.90;5.57;;;;;;;16.34;64.06;96752.72;5088975;28;20261;-70
2023/08/11 03:32:10;;;;;;;14.77;5.07;;;;;;;16.21;64.42;96757.94;5089037;28;20261;-70
2023/08/11 03:34:37;;;;;;;10.63;5.40;;;;;;;16.28;64.52;96747.84;5089005;28;20234;-70
2023/08/11 03:37:03;;;;;;;9.57;6.07;;;;;;;16.17;64.77;96756.41;5089009;28;20178;-70
2023/08/11 03:39:28;;;;;;;9.37;5.70;;;;;;;16.26;64.68;96750.56;5088855;28;20412;-70
2023/08/11 03:41:53;;;;;;;7.33;5.00;;;;;;;16.34;64.17;96758.03;5089324;28;20176;-70
2023/08/11 03:44:19;;;;;;;7.03;5.67;;;;;;;16.38;63.72;96764.84;5089839;28;20175;-70
2023/08/11 03:46:44;;;;;;;9.57;5.83;;;;;;;16.37;63.47;96755.22;5089139;28;20260;-69
2023/08/11 03:49:11;;;;;;;14.73;5.47;;;;;;;16.40;63.98;96762.97;5088143;28;20193;-69
2023/08/11 03:51:37;;;;;;;6.90;5.87;;;;;;;16.20;64.47;96764.16;5088754;28;20582;-69
2023/08/11 03:54:02;;;;;;;10.13;6.20;;;;;;;16.23;64.29;96764.00;5088698;28;20451;-69
2023/08/11 03:56:28;;;;;;;16.77;6.10;;;;;;;16.28;64.47;96767.22;5088960;28;20258;-69
2023/08/11 03:58:54;;;;;;;15.60;6.10;;;;;;;16.27;64.29;96762.84;5088579;28;20678;-69
2023/08/11 04:01:19;;;;;;;21.00;5.80;;;;;;;16.29;64.13;96760.97;5089020;28;20427;-70
2023/08/11 04:03:45;;;;;;;17.97;6.33;;;;;;;16.35;63.74;96765.06;5088616;28;20521;-70
2023/08/11 04:06:10;;;;;;;16.03;5.90;;;;;;;16.28;64.15;96769.88;5088667;28;20283;-70
2023/08/11 04:08:36;;;;;;;12.73;6.07;;;;;;;16.22;64.15;96767.56;5088396;28;20190;-70
2023/08/11 04:11:01;;;;;;;38.20;8.23;;;;;;;16.26;64.12;96762.97;5088069;28;20219;-70
2023/08/11 04:13:27;;;;;;;15.50;6.17;;;;;;;16.08;64.62;96764.91;5068736;28;20170;-70
2023/08/11 04:15:52;;;;;;;18.43;7.70;;;;;;;15.97;65.06;96768.22;5068168;28;20273;-69
2023/08/11 04:18:17;;;;;;;13.53;5.37;;;;;;;16.03;65.10;96770.47;5067876;28;20574;-69
2023/08/11 04:20:43;;;;;;;8.30;5.60;;;;;;;16.05;65.18;96778.34;5067782;28;20202;-69
2023/08/11 04:23:08;;;;;;;17.30;5.93;;;;;;;16.07;65.36;96772.00;5068245;28;20171;-69
2023/08/11 04:25:34;;;;;;;19.70;6.27;;;;;;;16.14;64.78;96775.16;5068015;28;20225;-70
2023/08/11 04:28:01;;;;;;;8.30;5.60;;;;;;;16.19;64.63;96783.66;5068136;28;20191;-70
2023/08/11 04:30:26;;;;;;;10.73;6.10;;;;;;;16.37;63.57;96778.19;5067498;28;20894;-69
2023/08/11 04:32:52;;;;;;;10.87;6.50;;;;;;;16.28;63.83;96774.31;5067896;28;20404;-70
2023/08/11 04:35:18;;;;;;;24.33;7.50;;;;;;;16.28;64.13;96783.09;5067656;28;20206;-70
2023/08/11 04:37:43;;;;;;;11.53;6.00;;;;;;;16.33;64.15;96777.53;5067737;28;20247;-71
2023/08/11 04:40:10;;;;;;;8.27;5.43;;;;;;;16.30;63.74;96778.56;5067549;28;20223;-70
2023/08/11 04:42:43;;;;;;;9.20;6.17;;;;;;;16.33;63.85;96776.69;5064902;28;20631;-68
2023/08/11 04:45:09;;;;;;;9.03;5.93;;;;;;;16.37;63.41;96780.81;5063880;28;20462;-68
2023/08/11 04:47:35;;;;;;;10.63;6.37;;;;;;;16.28;63.72;96782.25;5067420;28;20437;-70
2023/08/11 04:50:00;;;;;;;12.30;6.10;;;;;;;16.26;64.09;96782.34;5064404;28;20411;-70
2023/08/11 04:52:26;;;;;;;17.00;6.47;;;;;;;16.37;63.86;96783.47;5058052;28;20213;-69
2023/08/11 04:54:52;;;;;;;9.17;6.20;;;;;;;16.40;63.57;96784.16;5060245;28;20229;-70
2023/08/11 04:57:17;;;;;;;19.00;6.53;;;;;;;16.30;63.99;96783.88;5056745;28;20210;-70
2023/08/11 04:59:44;;;;;;;27.30;7.17;;;;;;;16.28;63.46;96780.47;5055509;28;20589;-69
2023/08/11 05:02:09;;;;;;;36.77;7.77;;;;;;;16.67;62.62;96784.25;5060358;28;20169;-69
2023/08/11 05:04:35;;;;;;;15.03;6.37;;;;;;;17.27;60.88;96790.25;5057878;28;20425;-68
2023/08/11 05:07:00;;;;;;;14.37;5.40;;;;;;;17.76;59.15;96787.03;5063161;28;20177;-70
2023/08/11 05:09:26;;;;;;;7.97;4.70;;;;;;;19.28;57.86;96783.66;5063520;28;20171;-71
2023/08/11 05:11:51;;;;;;;108.67;14.03;;;;;;;20.00;54.14;96781.84;5060746;28;20178;-70
2023/08/11 05:14:17;;;;;;;24.47;5.90;;;;;;;20.19;53.27;96781.28;5058852;28;20709;-70
2023/08/11 05:16:44;;;;;;;51.03;8.50;;;;;;;20.52;50.98;96775.16;5062409;28;20209;-69
2023/08/11 05:19:09;;;;;;;69.00;13.90;;;;;;;20.64;50.79;96768.06;5062341;28;20456;-69
2023/08/11 05:21:36;;;;;;;388.97;41.80;;;;;;;20.83;50.19;96774.59;5063948;28;20408;-70
2023/08/11 05:24:02;;;;;;;103.23;13.70;;;;;;;20.99;50.08;96771.56;5064288;28;20258;-72
2023/08/11 05:26:27;;;;;;;271.93;29.10;;;;;;;20.90;50.03;96771.31;5062273;28;20527;-70
2023/08/11 05:28:53;;;;;;;180.97;19.60;;;;;;;20.97;50.87;96777.03;5063301;28;20550;-72
2023/08/11 05:31:18;;;;;;;206.13;25.17;;;;;;;20.87;49.86;96776.91;5055225;28;20186;-71
2023/08/11 05:33:44;;;;;;;68.67;9.73;;;;;;;20.71;51.11;96777.25;5063041;28;20266;-71
2023/08/11 05:36:09;;;;;;;42.93;10.57;;;;;;;21.31;49.41;96769.81;5063619;28;20212;-70
2023/08/11 05:38:35;;;;;;;141.70;17.37;;;;;;;21.46;48.83;96783.78;5063577;28;20202;-71
2023/08/11 05:41:00;;;;;;;63.87;12.97;;;;;;;21.80;47.79;96783.66;5063317;28;20188;-71
2023/08/11 05:43:26;;;;;;;39.80;8.60;;;;;;;22.03;46.64;96784.41;5061582;28;20194;-72
2023/08/11 05:45:51;;;;;;;21.43;7.70;;;;;;;22.25;46.58;96786.13;5061214;28;20178;-72
2023/08/11 05:48:16;;;;;;;54.33;8.93;;;;;;;22.07;46.96;96782.34;5057148;28;20254;-72
2023/08/11 05:50:45;;;;;;;26.80;6.93;;;;;;;22.17;46.66;96775.22;5055101;28;20202;-74
2023/08/11 05:53:11;;;;;;;30.20;6.90;;;;;;;22.14;46.85;96767.47;5050494;28;20235;-71
2023/08/11 05:55:37;;;;;;;14.03;6.00;;;;;;;21.92;47.15;96779.97;5055863;28;20453;-73
2023/08/11 05:58:02;;;;;;;6.13;5.33;;;;;;;21.11;49.02;96784.75;5046971;28;20544;-74
2023/08/11 06:00:28;;;;;;;13.30;5.20;;;;;;;21.02;49.59;96779.31;5046068;28;20244;-74
2023/08/11 06:02:53;;;;;;;12.60;6.10;;;;;;;21.65;47.79;96777.78;5060795;28;20832;-75
2023/08/11 06:05:21;;;;;;;10.63;5.80;;;;;;;21.89;46.87;96776.72;5053559;28;20182;-74
2023/08/11 06:07:48;;;;;;;17.30;6.40;;;;;;;22.04;46.66;96783.44;5048048;28;20187;-72
2023/08/11 06:10:13;;;;;;;19.33;5.50;;;;;;;22.27;46.12;96773.50;5056098;28;20479;-71
2023/08/11 06:12:39;;;;;;;26.27;7.37;;;;;;;22.62;45.49;96777.66;5052849;28;20425;-72
2023/08/11 06:15:05;;;;;;;13.57;5.57;;;;;;;22.46;45.65;96780.78;5061550;28;20784;-72
2023/08/11 06:17:30;;;;;;;24.13;7.60;;;;;;;22.58;45.54;96787.78;5063517;28;20213;-71
2023/08/11 06:19:57;;;;;;;14.13;5.77;;;;;;;22.65;45.22;96787.22;5063603;28;20810;-72
2023/08/11 06:22:23;;;;;;;14.17;5.80;;;;;;;23.08;44.49;96786.19;5063678;28;20550;-71
2023/08/11 06:24:48;;;;;;;10.57;5.97;;;;;;;22.91;44.61;96783.13;5063628;28;20467;-75
2023/08/11 06:27:14;;;;;;;15.60;5.80;;;;;;;23.07;44.25;96785.34;5061906;28;20261;-72
2023/08/11 06:29:39;;;;;;;8.80;4.97;;;;;;;23.43;43.54;96789.28;5062861;28;20174;-71
2023/08/11 06:32:05;;;;;;;7.87;5.00;;;;;;;23.39;43.12;96787.84;5051791;28;20186;-71
2023/08/11 06:34:30;;;;;;;17.20;5.67;;;;;;;23.60;42.78;96792.25;5061578;28;20233;-73
2023/08/11 06:36:56;;;;;;;18.53;6.70;;;;;;;23.52;43.14;96797.44;5060053;28;20170;-70
2023/08/11 06:39:21;;;;;;;19.80;7.23;;;;;;;23.72;42.37;96791.16;5060739;28;20241;-70
2023/08/11 06:41:46;;;;;;;25.33;6.30;;;;;;;24.16;42.26;96790.75;5058569;28;20174;-72
2023/08/11 06:44:12;;;;;;;17.80;6.17;;;;;;;23.44;44.77;96790.94;5062174;28;20193;-72
2023/08/11 06:46:37;;;;;;;33.73;8.47;;;;;;;23.62;43.98;96787.59;5062421;28;20554;-75
2023/08/11 06:49:03;;;;;;;15.60;6.40;;;;;;;23.36;44.57;96785.44;5059413;28;20710;-73
2023/08/11 06:51:28;;;;;;;27.23;8.07;;;;;;;23.11;44.60;96777.91;5059072;28;20185;-72
2023/08/11 06:53:54;;;;;;;9.00;6.37;;;;;;;23.43;43.65;96783.03;5060216;28;20202;-71
2023/08/11 06:56:19;;;;;;;10.10;5.80;;;;;;;23.07;45.00;96779.16;5060812;28;20261;-72
2023/08/11 06:58:45;;;;;;;15.07;6.43;;;;;;;23.04;45.58;96782.94;5063345;28;20273;-71
2023/08/11 07:01:10;;;;;;;12.17;5.67;;;;;;;23.37;45.17;96787.13;5064823;28;20166;-70
2023/08/11 07:03:36;;;;;;;17.87;5.90;;;;;;;23.44;44.92;96780.25;5066472;28;20177;-70
2023/08/11 07:06:02;;;;;;;9.30;5.80;;;;;;;23.65;44.82;96784.66;5066145;28;20891;-71
2023/08/11 07:08:28;;;;;;;10.77;7.30;;;;;;;23.40;44.88;96789.53;5066561;28;20209;-71
2023/08/11 07:10:54;;;;;;;16.70;6.90;;;;;;;22.99;45.86;96790.53;5071246;28;20408;-74
2023/08/11 07:13:19;;;;;;;11.13;7.80;;;;;;;22.88;46.46;96790.59;5069196;28;20842;-74
2023/08/11 07:15:44;;;;;;;15.90;7.33;;;;;;;22.74;46.82;96794.47;5079985;28;20198;-71
2023/08/11 07:18:10;;;;;;;11.90;7.50;;;;;;;23.52;45.47;96784.06;5074265;28;20233;-75
2023/08/11 07:20:45;;;;;;;10.97;6.47;;;;;;;24.13;44.38;96780.31;5072886;28;20169;-71
2023/08/11 07:23:10;;;;;;;13.33;7.07;;;;;;;24.61;42.89;96782.94;5071312;28;20408;-72
2023/08/11 07:25:36;;;;;;;14.80;7.50;;;;;;;25.02;42.18;96778.16;5070412;28;20512;-71
2023/08/11 07:28:02;;;;;;;11.80;7.60;;;;;;;25.25;41.66;96781.34;5068908;28;20193;-70
2023/08/11 07:30:30;;;;;;;10.90;7.30;;;;;;;24.94;41.85;96775.34;5068572;28;20221;-70
2023/08/11 07:32:56;;;;;;;15.53;7.50;;;;;;;25.19;42.13;96781.06;5068759;28;20158;-71
2023/08/11 07:35:21;;;;;;;14.53;7.80;;;;;;;25.21;42.70;96788.00;5068964;28;20850;-71
2023/08/11 07:37:46;;;;;;;10.83;7.87;;;;;;;24.71;43.66;96785.63;5064166;28;20445;-70
2023/08/11 07:40:12;;;;;;;10.53;8.37;;;;;;;24.43;44.27;96784.66;5059642;28;20190;-71
2023/08/11 07:42:37;;;;;;;17.27;8.00;;;;;;;24.44;43.90;96783.66;5047482;28;20252;-71
2023/08/11 07:45:04;;;;;;;19.17;8.33;;;;;;;24.83;43.96;96786.28;5064216;28;20168;-70
2023/08/11 07:47:29;;;;;;;10.47;7.90;;;;;;;25.11;43.14;96782.63;5068555;28;20197;-71
2023/08/11 07:49:54;;;;;;;8.23;6.93;;;;;;;24.76;43.65;96791.38;5068495;28;20416;-73
2023/08/11 07:52:20;;;;;;;10.87;6.80;;;;;;;25.56;42.50;96789.06;5062515;28;20880;-70
2023/08/11 07:54:45;;;;;;;10.50;6.80;;;;;;;25.80;42.27;96779.56;5048875;28;20281;-71
2023/08/11 07:57:11;;;;;;;12.00;7.60;;;;;;;25.89;41.85;96789.41;5048767;28;20535;-72
2023/08/11 07:59:36;;;;;;;15.17;8.27;;;;;;;25.20;43.60;96793.50;5063492;28;20197;-70
2023/08/11 08:02:03;;;;;;;11.33;8.17;;;;;;;25.12;43.61;96792.38;5055936;28;20680;-70
2023/08/11 08:04:29;;;;;;;14.23;9.17;;;;;;;25.01;44.24;96789.03;5068391;28;20767;-71
2023/08/11 08:06:54;;;;;;;16.70;8.77;;;;;;;25.56;43.68;96786.38;5068378;28;20419;-71
2023/08/11 08:09:20;;;;;;;9.93;7.70;;;;;;;25.71;41.68;96789.38;5060320;28;20206;-70
2023/08/11 08:11:47;;;;;;;17.87;8.40;;;;;;;25.24;43.65;96795.75;5058391;28;20658;-71
2023/08/11 08:14:13;;;;;;;12.97;7.10;;;;;;;25.33;43.93;96791.31;5088266;28;20296;-71
2023/08/11 08:16:41;;;;;;;10.10;7.43;;;;;;;25.02;44.65;96788.06;5088407;28;20490;-70
2023/08/11 08:19:07;;;;;;;9.57;7.20;;;;;;;25.42;43.74;96785.06;5088155;28;20532;-69
2023/08/11 08:21:33;;;;;;;15.93;7.17;;;;;;;25.51;43.63;96794.03;5088488;28;20900;-69
2023/08/11 08:23:59;;;;;;;21.83;7.37;;;;;;;25.93;43.03;96799.72;5088335;28;20226;-73
2023/08/11 08:26:25;;;;;;;17.13;6.90;;;;;;;26.31;42.28;96800.38;5088250;28;20303;-70
2023/08/11 08:28:50;;;;;;;18.83;7.60;;;;;;;26.56;41.90;96796.06;5087974;28;20520;-70
2023/08/11 08:31:16;;;;;;;19.10;7.83;;;;;;;26.60;41.31;96793.94;5073649;28;20170;-72
2023/08/11 08:33:43;;;;;;;19.67;7.83;;;;;;;26.12;42.65;96796.03;5067924;28;20162;-71
2023/08/11 08:36:08;;;;;;;13.63;7.37;;;;;;;26.65;42.04;96798.81;5067033;28;20185;-71
2023/08/11 08:38:34;;;;;;;19.43;7.60;;;;;;;26.12;42.39;96797.88;5067882;28;20872;-70
2023/08/11 08:41:00;;;;;;;14.20;7.00;;;;;;;26.52;41.68;96799.22;5067807;28;20174;-72
2023/08/11 08:43:25;;;;;;;10.27;7.43;;;;;;;26.60;41.18;96797.47;5068206;28;20308;-70
2023/08/11 08:45:52;;;;;;;26.60;7.80;;;;;;;26.63;41.79;96807.06;5066892;28;20190;-70
2023/08/11 08:48:29;;;;;;;7.60;6.60;;;;;;;26.64;41.81;96803.34;5068095;28;20669;-70
2023/08/11 08:50:54;;;;;;;16.50;5.93;;;;;;;26.97;40.93;96801.72;5067829;28;20874;-70
2023/08/11 08:53:20;;;;;;;11.47;6.27;;;;;;;27.20;40.50;96804.72;5067614;28;20404;-70
2023/08/11 08:55:46;;;;;;;12.20;5.80;;;;;;;27.11;40.89;96804.81;5066906;28;20198;-70
2023/08/11 08:58:13;;;;;;;18.60;6.10;;;;;;;27.55;39.67;96808.25;5056274;28;20526;-71
2023/08/11 09:00:39;;;;;;;42.10;7.00;;;;;;;27.73;38.98;96801.88;5067642;28;20480;-70
2023/08/11 09:03:05;;;;;;;11.80;6.13;;;;;;;27.57;39.23;96800.84;5067889;28;20423;-74
2023/08/11 09:05:31;;;;;;;15.27;5.87;;;;;;;27.80;38.96;96805.59;5067856;28;20242;-72
2023/08/11 09:07:57;;;;;;;18.20;5.03;;;;;;;27.84;39.07;96801.59;5067634;28;20933;-71
2023/08/11 09:10:25;;;;;;;26.67;7.60;;;;;;;27.94;39.00;96793.34;5067442;28;20400;-71
2023/08/11 09:12:51;;;;;;;21.17;6.47;;;;;;;28.18;38.08;96790.69;5067412;28;20253;-71
2023/08/11 09:15:16;;;;;;;20.40;6.80;;;;;;;28.44;37.82;96795.06;5056762;28;20525;-71
2023/08/11 09:17:42;;;;;;;31.53;8.80;;;;;;;28.46;37.65;96791.22;5047125;28;20941;-71
2023/08/11 09:20:10;;;;;;;13.03;5.10;;;;;;;27.88;39.00;96786.78;5047793;28;20591;-71
2023/08/11 09:22:38;;;;;;;13.73;5.40;;;;;;;28.03;38.60;96790.50;5050052;28;20554;-72
2023/08/11 09:25:04;;;;;;;9.73;5.37;;;;;;;28.27;37.74;96783.44;5049165;28;20549;-70
2023/08/11 09:27:30;;;;;;;18.03;5.90;;;;;;;28.50;37.27;96781.75;5067925;28;20951;-71
2023/08/11 09:29:59;;;;;;;14.30;5.17;;;;;;;28.03;38.06;96785.09;5067166;28;20203;-72
2023/08/11 09:32:25;;;;;;;10.93;5.73;;;;;;;27.61;38.95;96780.59;5067431;28;20404;-71
2023/08/11 09:34:50;;;;;;;13.00;5.60;;;;;;;27.43;39.91;96779.91;5068472;28;21310;-71
2023/08/11 09:37:16;;;;;;;9.47;6.13;;;;;;;26.63;40.38;96782.84;5067504;28;20176;-70
2023/08/11 09:39:42;;;;;;;14.23;6.10;;;;;;;27.31;39.80;96776.66;5064066;28;20651;-70
2023/08/11 09:42:08;;;;;;;10.13;6.80;;;;;;;27.22;39.98;96780.31;5054546;28;20465;-73
2023/08/11 09:44:34;;;;;;;12.27;5.60;;;;;;;26.60;41.34;96781.31;5061700;28;20198;-72
2023/08/11 09:47:00;;;;;;;14.23;6.40;;;;;;;27.06;40.62;96770.28;5063825;28;20789;-71
2023/08/11 09:49:26;;;;;;;6.90;5.73;;;;;;;27.20;40.92;96769.69;5068999;28;20427;-71
2023/08/11 09:51:54;;;;;;;5.40;4.90;;;;;;;26.75;42.07;96773.47;5081971;28;20412;-71
2023/08/11 09:54:21;;;;;;;6.80;5.60;;;;;;;26.45;42.23;96768.53;5075472;28;20220;-72
2023/08/11 09:56:49;;;;;;;15.17;6.13;;;;;;;26.51;42.77;96767.91;5073985;28;20825;-71
2023/08/11 09:59:21;;;;;;;8.27;5.57;;;;;;;27.02;40.91;96766.22;5069202;28;20511;-71
2023/08/11 10:01:47;;;;;;;8.70;5.87;;;;;;;26.73;42.22;96770.09;5067399;28;20396;-70
2023/08/11 10:04:24;;;;;;;6.20;5.00;;;;;;;26.38;42.31;96768.31;5066867;28;20839;-72
2023/08/11 10:06:53;;;;;;;6.87;4.60;;;;;;;27.08;40.98;96770.13;5067359;28;20170;-71
2023/08/11 10:09:22;;;;;;;6.40;5.10;;;;;;;26.90;41.64;96765.66;5067019;28;20516;-71
2023/08/11 10:11:48;;;;;;;12.40;5.23;;;;;;;27.32;40.37;96759.47;5067402;28;20477;-70
2023/08/11 10:14:17;;;;;;;9.43;5.27;;;;;;;27.27;40.74;96764.50;5066863;28;20984;-73
2023/08/11 10:16:44;;;;;;;11.57;4.93;;;;;;;27.75;39.51;96759.41;5064920;28;20391;-71
2023/08/11 10:19:11;;;;;;;6.60;4.30;;;;;;;27.64;38.87;96763.28;5069148;28;20460;-72
2023/08/11 10:21:38;;;;;;;7.13;4.33;;;;;;;27.16;39.56;96768.28;5057557;28;20486;-71
2023/08/11 10:24:05;;;;;;;10.03;4.70;;;;;;;27.42;39.59;96765.56;5053628;28;20415;-72
2023/08/11 10:26:31;;;;;;;7.50;5.03;;;;;;;27.81;39.43;96770.38;5068928;28;20457;-71
2023/08/11 10:28:57;;;;;;;11.60;5.83;;;;;;;28.15;37.04;96761.34;5058875;28;20552;-71
2023/08/11 10:31:24;;;;;;;5.17;4.67;;;;;;;28.39;37.73;96763.19;5048194;28;20428;-72
2023/08/11 10:33:51;;;;;;;14.73;5.37;;;;;;;28.44;38.45;96752.72;5050355;28;20451;-73
2023/08/11 10:36:17;;;;;;;9.30;5.10;;;;;;;28.65;37.63;96754.91;5061393;28;20574;-71
2023/08/11 10:38:59;;;;;;;12.20;4.80;;;;;;;28.57;37.62;96759.50;5056858;28;20966;-72
2023/08/11 10:41:26;;;;;;;9.50;5.40;;;;;;;28.09;40.05;96762.03;5057750;28;20910;-71
2023/08/11 10:43:52;;;;;;;5.47;4.90;;;;;;;27.99;39.85;96756.78;5065414;28;20873;-73
2023/08/11 10:46:22;;;;;;;4.77;4.33;;;;;;;27.80;39.65;96762.44;5061098;28;20420;-71
2023/08/11 10:48:49;;;;;;;8.07;4.70;;;;;;;27.95;38.43;96760.00;5053378;28;20833;-72
2023/08/11 10:51:35;;;;;;;14.33;4.87;;;;;;;28.36;36.61;96746.50;5055533;28;20456;-71
2023/08/11 10:54:08;;;;;;;9.53;4.57;;;;;;;28.43;35.50;96750.19;5053912;28;20801;-72
2023/08/11 10:56:37;;;;;;;7.53;4.40;;;;;;;28.52;37.20;96749.22;5049325;28;20432;-72
2023/08/11 10:59:13;;;;;;;6.20;4.20;;;;;;;28.03;38.76;96747.34;5058932;28;20440;-71
2023/08/11 11:01:41;;;;;;;8.93;4.50;;;;;;;27.94;38.24;96758.28;5057900;28;20483;-72
2023/08/11 11:04:08;;;;;;;12.50;4.80;;;;;;;27.43;37.57;96755.66;5071102;28;20400;-71
2023/08/11 11:06:35;;;;;;;6.73;4.30;;;;;;;27.44;37.85;96755.47;5068558;28;20415;-71
2023/08/11 11:09:01;;;;;;;5.07;4.57;;;;;;;27.57;38.68;96746.91;5049922;28;20428;-71
2023/08/11 11:11:27;;;;;;;7.70;4.90;;;;;;;27.51;38.73;96752.97;5055099;28;20427;-70
2023/08/11 11:13:53;;;;;;;9.57;4.60;;;;;;;27.20;39.13;96753.53;5090618;28;20411;-71
2023/08/11 11:16:20;;;;;;;7.77;4.00;;;;;;;27.15;39.38;96742.38;5090276;28;20236;-71
2023/08/11 11:18:50;;;;;;;7.03;3.40;;;;;;;27.03;39.70;96747.22;5087961;28;20200;-71
2023/08/11 11:21:17;;;;;;;4.77;4.37;;;;;;;26.86;39.83;96753.53;5070463;28;20469;-70
2023/08/11 11:23:47;;;;;;;8.70;4.97;;;;;;;27.02;39.94;96747.34;5070831;28;20446;-71
2023/08/11 11:26:20;;;;;;;4.70;4.30;;;;;;;27.18;38.93;96750.13;5070906;28;20443;-71